Date,TemperatureHighF,TemperatureAvgF,TemperatureLowF,DewpointHighF,DewpointAvgF,DewpointLowF,HumidityHigh,HumidityAvg,HumidityLow,PressureMaxIn,PressureMinIn,WindSpeedMaxMPH,WindSpeedAvgMPH,GustSpeedMaxMPH,PrecipitationSumIn
2013-1-1,32.5,29.8,23.2,32.3,28.3,20.5,99,94,87,30.22,30.08,0,0,0,0.01
2013-1-2,27.7,18.9,9.7,20.5,12.5,8.3,96,78,46,30.29,30.19,5,0,5,0.00
2013-1-3,36.0,22.5,7.5,25.5,16.8,6.2,96,79,61,30.38,30.23,14,4,14,0.04
2013-1-4,35.1,29.6,23.9,24.9,22.2,19.4,90,74,54,30.42,30.35,19,6,19,0.00
2013-1-5,40.3,29.2,15.3,29.8,23.8,14.8,99,82,54,30.37,30.18,17,4,17,0.01
2013-1-6,37.2,32.8,25.0,33.9,27.6,21.1,90,81,71,30.40,30.07,24,8,24,0.00
2013-1-7,40.3,27.4,16.0,26.9,22.6,15.6,99,83,56,30.48,30.25,13,2,13,0.00
2013-1-8,49.5,33.5,20.7,31.2,26.0,20.2,99,77,41,30.32,30.22,17,3,17,0.00
2013-1-9,54.1,44.9,35.2,47.6,38.5,30.3,99,80,54,30.53,30.22,17,4,21,0.08
2013-1-10,47.7,39.6,32.0,47.4,38.0,31.8,99,94,70,30.52,30.05,9,3,9,0.20
2013-1-11,61.3,55.8,47.8,56.8,52.0,47.6,99,88,68,30.04,29.89,28,8,28,0.54
2013-1-12,66.6,60.1,56.1,65.8,57.8,49.5,99,92,73,30.04,29.72,22,7,22,1.26
2013-1-13,65.8,39.7,25.5,65.6,39.3,23.2,99,98,90,30.25,29.66,31,6,31,1.43
2013-1-14,26.2,22.8,18.1,24.5,19.6,16.2,95,88,76,30.46,30.26,0,0,0,0.00
2013-1-15,34.7,26.3,19.0,27.0,21.7,18.6,98,84,58,30.39,30.12,14,3,14,0.01
2013-1-16,35.4,31.6,29.5,27.9,24.6,15.5,91,76,44,30.14,30.03,13,5,14,0.00
2013-1-17,44.4,34.0,26.6,33.7,26.4,19.9,97,75,47,30.45,30.13,20,5,20,0.00
2013-1-18,43.7,31.8,18.0,26.0,20.4,16.4,98,66,34,30.54,30.23,26,7,26,0.00
2013-1-19,56.3,47.0,39.0,38.4,27.9,20.5,71,48,35,30.23,29.96,31,17,31,0.18
2013-1-20,47.3,33.8,25.2,38.7,13.5,-1.8,75,45,20,30.30,30.01,28,9,28,0.00
2013-1-21,25.2,18.9,12.4,17.4,6.2,-4.3,79,58,33,30.32,30.19,25,10,25,0.00
2013-1-22,19.2,12.5,5.4,-0.5,-3.1,-6.3,70,50,35,30.44,30.31,17,6,18,0.00
2013-1-23,33.3,21.6,11.1,18.9,7.7,-1.1,71,55,35,30.39,30.13,21,4,21,0.00
2013-1-24,27.9,21.7,14.5,16.9,4.4,-10.2,80,50,20,30.60,30.19,24,6,24,0.00
2013-1-25,30.2,24.5,20.5,21.4,14.8,-1.0,90,68,35,30.37,30.09,12,5,12,0.00
2013-1-26,38.3,28.2,20.3,22.4,17.3,13.8,87,65,37,30.43,30.16,11,4,11,0.00
2013-1-27,41.7,31.0,22.1,41.3,25.3,16.5,99,80,57,30.41,30.10,10,3,10,0.15
2013-1-28,59.2,53.2,42.1,58.9,50.9,41.8,99,92,72,30.14,30.04,34,13,34,0.41
2013-1-29,67.5,61.1,56.3,61.5,58.4,55.2,99,91,80,30.05,29.49,34,14,34,0.07
2013-1-30,69.3,48.0,28.0,62.3,45.7,21.8,99,92,77,29.75,29.35,42,12,42,1.54
2013-1-31,33.3,24.7,11.5,25.9,16.1,1.6,99,70,52,30.21,29.75,31,14,31,0.13
2013-2-1,18.5,11.6,4.6,9.1,3.0,-2.4,82,68,53,30.47,30.21,23,7,23,0.00
2013-2-2,33.4,24.7,13.6,28.0,20.9,9.2,99,86,62,30.32,30.04,18,7,18,0.00
2013-2-3,28.8,21.5,17.2,24.5,17.8,13.7,99,86,71,30.16,30.01,17,4,17,0.02
2013-2-4,40.8,29.3,15.8,35.9,25.5,14.5,99,86,60,30.14,29.84,20,5,20,0.00
2013-2-5,43.2,34.0,24.4,35.7,30.1,24.2,99,86,67,30.06,29.90,18,5,18,0.00
2013-2-6,38.5,37.0,24.3,33.5,32.4,19.8,92,83,82,30.38,30.06,7,6,11,2.33
2013-2-7,65.3,45.9,30.4,50.1,35.4,28.1,99,72,30,30.18,29.83,16,4,16,0.13
2013-2-8,49.3,35.3,32.5,49.0,31.8,25.7,99,87,75,30.37,29.85,21,8,21,0.01
2013-2-9,45.7,34.3,23.7,27.8,25.0,22.8,99,71,44,30.41,30.16,11,3,13,0.00
2013-2-10,53.1,45.0,35.8,52.8,38.8,22.2,99,80,53,30.17,29.77,32,7,32,0.24
2013-2-11,54.0,44.9,37.0,52.9,33.1,25.9,98,64,47,30.11,29.77,30,13,34,0.09
2013-2-12,48.2,38.6,28.4,30.3,27.1,21.2,89,65,37,30.16,29.93,14,4,14,0.00
2013-2-13,47.1,36.3,31.3,32.4,28.1,21.1,94,74,37,29.94,29.83,17,4,17,0.00
2013-2-14,53.1,42.1,35.1,38.2,34.8,28.3,99,78,46,30.05,29.87,23,9,23,0.00
2013-2-15,40.8,33.9,25.0,31.8,24.2,15.0,91,69,40,30.20,30.01,23,6,23,0.00
2013-2-16,31.6,24.7,19.8,18.3,13.3,6.4,84,63,36,30.19,30.11,21,6,21,0.00
2013-2-17,38.7,25.7,13.5,14.8,10.4,2.0,91,56,25,30.26,30.15,13,2,13,0.00
2013-2-18,61.2,44.5,27.9,46.4,29.9,12.0,99,59,30,30.16,29.67,37,13,37,1.36
2013-2-19,48.2,30.2,23.9,46.9,22.5,11.5,99,74,55,30.20,29.66,35,15,36,0.41
2013-2-20,29.7,21.9,15.4,14.2,10.6,6.7,76,62,43,30.35,30.20,20,6,20,0.00
2013-2-21,34.0,24.9,15.8,30.9,20.5,13.1,99,84,59,30.35,29.95,20,5,20,0.00
2013-2-22,39.2,35.0,31.1,36.2,32.9,27.1,99,92,78,30.03,29.84,23,5,23,0.25
2013-2-23,41.4,32.2,25.5,27.4,23.1,20.5,87,70,48,30.04,29.95,14,4,14,0.00
2013-2-24,47.7,31.6,19.6,27.2,23.1,18.9,99,74,38,30.16,30.00,8,2,8,0.00
2013-2-25,48.6,36.8,26.2,26.9,24.9,19.3,96,65,32,30.14,29.81,21,6,21,0.00
2013-2-26,50.9,40.6,35.1,50.6,36.5,23.5,99,87,49,29.81,29.40,22,8,22,0.69
2013-2-27,41.7,35.1,32.7,41.5,34.3,31.1,99,97,84,29.78,29.55,24,11,24,0.05
2013-2-28,37.9,34.7,32.2,36.8,33.9,30.8,99,97,90,30.03,29.77,20,7,20,0.02
2013-3-1,36.9,33.2,31.3,33.3,31.7,30.0,99,94,80,30.08,29.99,10,4,10,0.04
2013-3-2,32.4,30.0,28.0,31.6,25.2,19.5,99,83,63,30.14,30.06,18,6,18,0.01
2013-3-3,38.7,29.2,21.2,25.3,19.1,10.5,97,69,34,30.15,30.08,12,4,12,0.00
2013-3-4,41.2,31.7,19.0,25.6,20.0,16.3,95,64,39,30.14,29.94,14,3,14,0.00
2013-3-5,40.8,36.7,28.2,38.4,31.3,24.7,99,83,53,29.94,29.68,24,3,24,0.19
2013-3-6,33.3,30.8,29.1,31.9,29.7,28.9,99,96,88,30.31,29.81,5,0,5,0.00
2013-3-7,38.5,33.0,28.6,32.2,28.4,26.0,99,84,63,30.40,30.29,11,3,11,0.05
2013-3-8,49.6,36.2,26.2,30.4,27.2,25.1,99,72,40,30.48,30.35,11,3,11,0.00
2013-3-9,60.6,45.9,32.2,33.0,29.2,24.6,79,55,29,30.35,29.99,15,5,15,0.00
2013-3-10,69.1,60.5,52.7,46.5,33.2,21.6,62,37,18,30.00,29.77,34,10,34,0.11
2013-3-11,59.5,47.5,35.1,53.7,44.5,30.8,99,90,62,29.95,29.67,27,11,27,0.20
2013-3-12,46.6,37.6,33.8,34.2,28.1,22.9,94,71,40,30.10,29.94,23,9,23,0.02
2013-3-13,35.2,29.7,25.5,31.2,21.8,17.4,93,72,55,30.37,30.09,23,9,23,0.00
2013-3-14,35.4,27.7,19.6,33.0,24.4,16.6,99,88,52,30.38,30.20,11,2,11,0.00
2013-3-15,58.1,41.6,25.9,41.6,34.6,25.7,99,80,46,30.21,29.72,11,2,11,0.05
2013-3-16,63.0,51.9,37.9,50.8,42.3,32.5,82,70,57,30.05,29.65,23,8,23,0.00
2013-3-17,38.8,35.7,32.0,34.8,31.3,28.9,99,84,74,30.13,29.92,16,8,16,0.43
2013-3-18,49.5,39.4,34.3,45.8,38.4,29.4,99,96,90,29.92,29.67,21,7,21,0.97
2013-3-19,45.9,34.7,27.1,38.4,20.7,5.2,99,60,19,30.17,29.89,30,11,30,0.01
2013-3-20,35.2,31.7,26.4,20.0,15.3,5.0,62,51,37,30.16,30.06,24,8,24,0.00
2013-3-21,37.9,27.1,18.3,15.0,8.9,2.6,84,49,24,30.09,30.00,12,4,12,0.00
2013-3-22,46.2,31.9,16.9,22.8,14.0,3.3,89,52,17,30.10,29.99,11,2,11,0.00
2013-3-23,55.8,43.6,36.1,24.5,19.8,11.2,58,41,19,30.07,29.87,16,5,16,0.00
2013-3-24,43.2,36.6,31.1,35.9,30.0,22.3,99,80,46,29.88,29.43,25,6,25,0.07
2013-3-25,36.0,31.6,29.1,33.2,31.1,28.9,99,98,91,30.05,29.51,17,4,17,0.08
2013-3-26,41.9,34.8,30.0,32.5,27.7,21.3,99,77,48,30.31,30.05,17,7,17,0.15
2013-3-27,46.8,36.6,19.9,29.5,24.4,11.5,94,64,36,30.36,30.07,14,4,14,0.00
2013-3-28,54.5,39.8,25.9,27.5,23.6,20.1,85,56,29,30.40,30.29,12,3,12,0.00
2013-3-29,60.8,45.1,32.0,34.2,27.1,17.9,89,55,21,30.33,30.21,11,3,11,0.00
2013-3-30,61.3,47.4,30.7,38.2,32.3,28.0,97,60,31,30.25,29.95,16,3,17,0.00
2013-3-31,61.3,51.3,45.5,49.6,45.1,37.5,99,82,43,29.95,29.83,21,5,21,0.15
2013-4-1,53.1,43.8,36.3,43.9,22.8,6.4,75,46,19,30.18,29.87,20,8,20,0.00
2013-4-2,49.5,37.6,27.3,20.4,11.7,-5.5,67,39,10,30.31,30.17,15,4,15,0.00
2013-4-3,52.2,38.8,26.6,19.5,11.7,-2.5,64,37,12,30.41,30.28,17,4,17,0.00
2013-4-4,62.6,46.9,35.8,20.0,10.2,-2.0,49,26,10,30.32,30.01,12,4,12,0.00
2013-4-5,63.7,49.6,34.9,34.3,20.9,10.7,60,35,13,30.15,30.02,17,4,17,0.00
2013-4-6,72.7,56.4,41.5,33.1,28.4,23.4,61,37,16,30.15,29.87,29,6,30,0.04
2013-4-7,75.6,65.7,57.7,59.5,43.9,32.6,99,49,30,30.01,29.86,31,10,31,0.13
2013-4-8,73.4,63.4,54.0,57.3,55.2,53.0,99,77,51,29.99,29.88,29,7,29,0.05
2013-4-9,80.8,68.7,55.0,62.6,57.9,54.1,99,71,42,30.03,29.92,36,9,36,0.04
2013-4-10,82.4,73.6,65.1,66.5,62.8,59.4,91,70,50,29.96,29.75,27,10,27,0.01
2013-4-11,77.4,61.6,49.8,67.0,58.3,49.0,99,91,46,29.82,29.58,34,7,34,0.99
2013-4-12,49.8,41.4,36.7,49.6,36.3,31.1,99,82,58,29.80,29.65,21,9,21,0.01
2013-4-14,75.7,69.7,63.1,44.2,38.5,31.9,50,33,21,29.89,29.82,25,9,25,0.00
2013-4-15,73.8,64.2,58.5,56.6,52.3,45.2,77,66,51,30.01,29.89,21,6,21,0.00
2013-4-16,74.3,64.2,55.9,66.4,60.0,52.6,99,87,74,30.17,29.93,24,6,24,0.28
2013-4-17,81.0,62.7,53.6,72.4,61.1,53.3,99,95,73,30.18,29.91,21,4,21,0.27
2013-4-18,81.1,70.8,59.2,68.1,64.2,57.1,99,82,47,29.91,29.62,36,10,36,0.76
2013-4-19,57.7,42.4,38.3,57.5,35.9,27.8,99,79,56,30.04,29.61,29,11,29,0.69
2013-4-20,52.7,42.8,31.8,36.9,28.4,17.6,99,62,26,30.40,30.04,17,5,17,0.00
2013-4-21,61.3,47.7,35.8,29.8,26.3,17.2,72,47,18,30.51,30.34,15,4,15,0.00
2013-4-22,73.2,56.5,38.8,40.2,32.2,26.4,73,43,20,30.36,30.10,11,3,11,0.00
2013-4-23,67.8,58.8,48.6,61.3,49.9,39.3,99,73,57,30.14,29.81,29,5,29,0.13
2013-4-24,66.9,45.9,37.2,59.7,41.8,32.1,99,87,54,30.26,29.83,25,6,29,0.44
2013-4-25,59.0,44.9,32.5,40.3,33.4,22.3,99,70,26,30.39,30.25,24,6,24,0.00
2013-4-26,65.5,50.4,33.8,38.9,33.6,28.3,99,58,26,30.45,30.32,11,2,11,0.00
2013-4-27,61.3,53.2,45.3,56.0,47.5,39.4,99,82,59,30.36,30.00,17,3,17,0.04
2013-4-28,76.3,57.3,53.4,61.1,56.6,31.0,99,97,84,30.00,29.86,17,5,17,0.14
2013-4-29,72.5,60.9,55.0,57.9,54.2,48.7,99,82,46,30.03,29.93,14,4,14,0.00
2013-4-30,83.8,67.2,49.6,58.3,53.6,49.4,99,67,37,30.06,29.95,13,3,13,0.00
2013-5-1,83.3,66.2,54.3,60.5,54.1,48.1,99,69,31,30.16,30.06,12,2,12,0.00
2013-5-2,80.2,69.8,61.3,59.9,57.5,54.6,88,66,45,30.20,30.07,14,3,14,0.00
2013-5-3,78.1,67.4,60.8,65.3,58.8,51.5,99,77,40,30.08,29.90,20,3,20,0.08
2013-5-4,62.6,58.2,53.2,61.4,54.4,47.0,99,88,60,30.04,29.92,11,3,11,0.43
2013-5-5,60.3,53.3,50.9,56.0,53.1,48.1,99,99,99,30.03,29.92,16,5,16,0.61
2013-5-6,68.5,59.1,52.3,62.2,55.8,52.1,99,90,67,29.98,29.87,14,5,14,0.04
2013-5-7,72.3,63.4,57.0,59.8,57.1,52.9,99,82,53,30.02,29.96,12,3,12,0.00
2013-5-8,80.6,67.7,56.3,63.3,57.4,49.0,99,74,35,30.06,29.97,10,2,10,0.00
2013-5-9,80.4,64.7,54.7,68.6,60.4,49.2,99,89,34,30.06,29.92,23,3,23,0.17
2013-5-10,69.4,65.5,57.7,66.5,63.7,57.1,99,94,88,29.95,29.85,12,5,12,0.08
2013-5-11,64.6,53.2,48.0,58.0,48.0,29.8,99,85,40,30.08,29.93,15,5,17,0.06
2013-5-12,59.0,50.3,40.8,35.7,28.7,19.2,72,46,23,30.18,30.07,22,5,22,0.09
2013-5-13,66.9,52.4,36.9,41.3,31.1,17.1,94,52,15,30.24,30.14,19,4,19,0.00
2013-5-14,84.7,65.8,43.7,59.7,49.4,38.8,96,58,39,30.16,29.85,27,8,27,0.00
2013-5-15,86.7,77.3,68.4,60.3,58.4,54.9,73,54,35,29.98,29.88,26,11,26,0.00
2013-5-16,75.7,68.6,62.8,66.9,62.1,56.6,99,80,62,30.01,29.89,27,6,27,0.00
2013-5-17,79.5,66.1,58.3,69.9,62.8,54.3,99,90,47,30.06,29.99,22,2,22,0.00
2013-5-18,78.4,69.4,63.9,69.4,66.0,63.4,99,90,65,30.06,29.98,10,2,10,0.01
2013-5-19,88.3,73.6,61.0,73.4,66.4,60.7,99,81,47,30.02,29.88,11,3,13,0.00
2013-5-20,85.6,76.5,68.5,74.3,70.8,67.2,99,84,56,30.00,29.87,21,7,21,0.00
2013-5-21,81.7,72.5,63.0,70.8,65.7,61.9,99,81,54,29.99,29.82,27,8,27,0.33
2013-5-22,76.3,69.8,65.1,68.5,64.1,59.1,99,83,61,29.84,29.77,21,8,21,0.01
2013-5-23,68.5,60.6,50.9,62.2,57.2,47.5,99,89,64,30.19,29.85,19,5,19,0.01
2013-5-24,69.3,53.8,42.3,48.0,42.6,33.2,99,71,28,30.39,30.18,13,3,13,0.00
2013-5-25,67.6,54.2,42.1,55.3,46.9,38.6,99,80,36,30.40,30.23,11,2,11,0.09
2013-5-26,70.7,59.4,50.7,61.3,55.0,50.3,99,87,57,30.32,30.15,14,3,14,0.20
2013-5-27,83.5,69.1,56.8,68.6,60.7,56.6,99,79,45,30.18,29.94,28,6,28,0.24
2013-5-28,84.6,73.2,63.1,70.1,65.9,62.7,99,80,54,30.02,29.91,29,8,29,0.01
2013-5-29,86.7,76.8,69.4,66.4,62.2,55.4,83,62,37,30.09,30.00,22,8,22,0.00
2013-5-30,85.5,75.3,66.2,70.3,67.5,65.8,99,78,57,30.11,29.98,24,6,24,0.00
2013-5-31,78.6,72.5,63.9,73.9,69.0,63.6,99,89,74,30.06,29.93,20,7,21,0.77
2013-6-1,76.5,69.8,64.4,73.7,67.8,56.0,99,93,81,29.97,29.81,26,8,26,0.59
2013-6-2,73.0,67.1,62.4,67.6,62.7,59.4,99,86,64,30.00,29.88,14,5,14,0.00
2013-6-3,69.8,60.4,54.7,59.2,53.8,48.8,99,81,51,30.11,30.00,9,2,9,0.00
2013-6-4,73.4,57.7,49.5,56.4,52.8,49.2,99,86,49,30.16,30.08,11,2,11,0.00
2013-6-6,82.8,73.3,64.0,69.5,63.7,54.9,99,75,41,29.86,29.79,11,2,11,0.04
2013-6-7,78.1,67.8,63.0,65.4,63.0,56.0,99,87,52,29.92,29.83,12,3,12,0.00
2013-6-8,81.1,69.3,62.2,66.3,62.2,56.2,99,81,44,30.04,29.90,8,2,8,0.00
2013-6-9,82.0,71.2,62.6,70.1,64.9,55.1,99,83,41,30.06,29.86,15,2,15,0.00
2013-6-10,75.9,70.0,66.0,70.5,66.5,62.9,99,89,67,29.93,29.82,20,6,20,0.08
2013-6-11,85.3,75.0,64.2,71.9,66.6,61.6,99,77,48,30.03,29.91,14,4,14,0.00
2013-6-12,91.2,82.7,72.0,77.5,74.1,70.8,99,77,53,29.99,29.77,30,8,30,0.00
2013-6-13,85.1,77.5,65.1,73.0,64.0,48.7,81,64,36,30.02,29.70,27,8,27,0.00
2013-6-14,82.8,68.0,55.9,64.5,58.7,53.3,99,75,38,30.11,29.99,9,2,9,0.00
2013-6-15,86.7,73.8,59.9,68.6,62.1,55.4,99,71,37,30.15,29.98,17,4,17,0.00
2013-6-16,77.0,71.5,68.5,73.3,68.8,62.6,99,91,61,30.08,29.98,17,3,17,0.19
2013-6-17,88.2,74.7,66.6,77.4,70.5,66.3,99,88,55,30.01,29.90,40,3,40,0.96
2013-6-18,86.9,70.3,64.8,70.6,66.3,57.1,99,89,50,30.01,29.91,24,3,24,0.08
2013-6-19,83.5,71.3,63.5,68.0,65.3,61.7,99,84,49,30.13,30.01,10,3,10,0.01
2013-6-20,88.0,74.1,62.2,69.2,63.9,55.8,99,75,36,30.22,30.13,13,2,13,0.00
2013-6-21,89.2,77.8,62.6,74.0,67.3,62.3,99,73,45,30.23,30.08,14,3,14,0.00
2013-6-22,88.3,76.3,70.0,74.8,71.8,66.4,99,87,57,30.19,30.06,19,4,19,0.00
2013-6-23,84.6,75.5,65.8,74.6,70.3,65.6,99,85,62,30.15,30.08,22,4,22,0.00
2013-6-24,82.0,74.9,69.6,75.3,72.5,69.4,99,92,76,30.17,30.06,14,4,14,0.00
2013-6-25,89.8,77.9,67.6,77.6,72.8,65.2,99,85,59,30.09,29.93,20,5,20,0.06
2013-6-26,81.3,70.0,66.2,78.4,69.3,65.9,99,98,85,30.05,29.80,45,5,45,3.09
2013-6-27,90.3,76.7,61.9,81.0,72.3,61.6,99,88,54,29.85,29.78,15,4,17,0.00
2013-6-28,87.1,78.6,67.8,73.9,65.8,56.0,96,68,37,29.81,29.67,18,7,18,0.02
2013-6-29,79.5,69.7,64.4,69.4,66.2,64.1,99,90,63,29.71,29.64,14,3,14,0.18
2013-6-30,76.1,68.3,63.9,71.9,67.5,63.6,99,97,74,29.88,29.69,14,3,14,0.09
2013-7-1,72.9,67.9,64.9,72.1,67.5,64.7,99,99,94,29.96,29.85,14,6,14,0.21
2013-7-2,80.4,70.6,65.3,71.3,67.6,64.1,99,91,62,30.05,29.94,14,4,16,0.00
2013-7-3,79.7,69.2,62.6,68.5,65.2,60.7,99,88,59,30.14,30.03,17,4,17,0.01
2013-7-4,75.7,69.1,62.2,74.7,68.3,62.0,99,97,89,30.16,30.09,9,2,9,0.06
2013-7-5,82.2,73.1,64.2,73.2,69.1,64.0,99,88,64,30.16,30.09,8,2,8,0.00
2013-7-6,77.5,71.6,67.6,73.0,69.7,66.2,99,94,76,30.14,30.07,11,3,11,0.04
2013-7-7,86.2,73.3,64.8,73.8,68.3,64.5,99,86,53,30.14,30.07,10,3,10,0.00
2013-7-8,87.8,77.2,67.6,76.4,72.5,67.4,99,87,63,30.17,30.08,19,4,19,0.00
2013-7-9,90.1,81.8,75.4,80.0,76.5,74.8,99,85,62,30.12,30.01,16,5,16,0.00
2013-7-10,85.5,78.9,68.5,79.3,75.6,68.3,99,90,62,30.07,29.85,31,5,31,0.90
2013-7-11,81.5,72.1,63.3,72.6,64.0,54.7,99,78,47,30.07,29.97,16,4,16,0.00
2013-7-12,82.4,70.3,59.7,64.8,60.6,54.9,99,75,41,30.14,30.07,14,3,14,0.00
2013-7-13,85.5,72.4,61.7,69.2,64.1,60.3,99,78,49,30.14,30.08,14,4,14,0.00
2013-7-14,90.5,77.9,66.0,77.1,70.8,65.8,99,81,51,30.23,30.13,14,2,14,0.05
2013-7-15,90.1,80.7,71.2,78.9,73.1,68.3,99,80,53,30.32,30.22,13,3,13,0.01
2013-7-16,93.2,81.8,71.1,80.7,74.2,69.8,99,80,49,30.37,30.29,7,1,8,0.00
2013-7-17,93.6,80.9,71.8,80.6,75.4,70.9,99,86,50,30.37,30.22,10,1,10,0.00
2013-7-18,94.5,82.3,73.4,79.7,75.4,67.9,99,82,43,30.26,30.07,8,1,9,0.00
2013-7-19,90.9,83.3,75.4,79.5,75.8,72.0,99,80,55,30.09,29.93,17,6,17,0.00
2013-7-20,88.2,77.6,68.5,75.6,73.0,66.9,99,87,61,30.01,29.91,18,6,27,0.45
2013-7-21,87.6,74.7,65.1,77.8,70.5,64.9,99,88,56,30.01,29.91,14,2,14,0.11
2013-7-22,84.0,74.3,68.7,77.1,72.2,68.5,99,94,69,29.96,29.83,22,4,27,0.21
2013-7-23,89.4,77.5,68.7,82.0,73.8,66.6,99,89,63,29.90,29.80,14,4,21,0.32
2013-7-24,77.4,67.9,59.0,64.8,60.3,56.4,99,78,51,30.04,29.90,13,4,13,0.00
2013-7-25,80.4,66.7,55.9,62.8,58.0,52.3,99,78,40,30.13,30.04,14,2,14,0.00
2013-7-26,81.0,69.8,56.7,68.5,61.0,56.4,99,77,46,30.12,30.00,13,2,13,0.00
2013-7-27,79.0,69.8,60.4,69.5,61.4,52.4,99,78,48,30.01,29.91,16,6,16,0.22
2013-7-28,74.8,62.9,50.9,60.9,52.8,46.2,99,73,38,30.09,29.99,14,4,15,0.00
2013-7-29,80.8,66.4,54.5,64.7,58.4,52.3,99,80,39,30.21,30.09,13,2,13,0.00
2013-7-30,79.7,68.6,60.8,70.6,64.8,60.5,99,89,56,30.23,30.12,14,2,14,0.12
2013-7-31,77.4,69.5,65.5,75.1,69.1,65.2,99,98,89,30.13,29.98,8,2,8,0.01
2013-8-1,84.4,73.3,65.3,73.6,66.7,56.8,99,83,40,30.06,29.99,12,3,12,0.11
2013-8-2,82.4,70.8,59.0,71.1,65.3,58.7,99,84,57,30.06,29.99,18,4,18,0.09
2013-8-3,85.1,76.4,69.3,73.6,69.7,66.2,99,81,59,30.10,29.98,12,4,12,0.00
2013-8-4,79.9,69.0,59.2,64.6,58.8,50.9,96,73,39,30.20,30.10,14,3,14,0.00
2013-8-5,82.2,69.2,56.7,66.6,59.4,52.2,99,75,40,30.15,29.97,17,3,17,0.00
2013-8-6,82.8,74.8,69.3,76.7,71.4,64.9,99,89,77,29.99,29.93,11,3,11,0.00
2013-8-7,84.2,76.6,71.8,78.7,74.9,71.5,99,95,75,29.97,29.91,13,4,13,0.00
2013-8-8,88.7,77.9,70.5,78.6,74.3,69.9,99,90,59,30.00,29.90,11,3,15,0.56
2013-8-9,87.1,76.8,71.6,79.2,72.6,67.4,99,88,54,30.07,29.95,8,2,8,0.01
2013-8-10,87.8,77.1,70.5,73.3,69.8,64.0,99,81,48,30.15,30.06,9,2,9,0.00
2013-8-11,86.4,75.9,66.7,74.3,66.7,57.7,99,77,40,30.15,30.08,15,2,15,0.00
2013-8-12,84.7,72.8,61.7,76.0,68.7,61.4,99,88,65,30.13,29.93,9,2,9,0.00
2013-8-13,79.5,71.8,58.3,73.5,65.9,50.8,99,83,59,30.12,29.92,14,3,14,0.01
2013-8-14,73.6,60.5,49.8,55.5,51.4,46.0,99,76,41,30.22,30.12,17,3,17,0.00
2013-8-15,73.8,61.4,49.8,60.1,54.0,49.6,99,79,51,30.20,30.11,11,2,11,0.02
2013-8-16,78.3,66.2,53.4,61.8,57.4,53.2,99,77,46,30.19,30.12,14,3,14,0.00
2013-8-17,81.7,67.8,58.3,64.4,60.1,53.2,99,79,38,30.22,30.13,11,2,13,0.00
2013-8-18,84.0,71.7,60.1,68.8,62.2,55.3,99,76,39,30.22,30.12,11,2,11,0.00
2013-8-19,86.5,71.9,59.9,72.6,62.7,58.8,99,77,41,30.18,30.09,10,2,10,0.00
2013-8-20,89.4,73.3,63.7,74.3,67.2,62.8,99,85,44,30.18,30.09,12,2,12,0.00
2013-8-21,89.6,75.7,64.0,78.4,68.7,63.8,99,82,44,30.19,30.09,10,2,10,0.00
2013-8-22,88.5,76.9,66.2,77.7,70.4,65.9,99,83,53,30.15,30.06,14,3,14,0.00
2013-8-23,87.3,76.4,68.7,72.8,68.6,63.6,99,80,48,30.16,30.08,13,3,13,0.00
2013-8-24,88.3,74.7,63.0,69.2,62.0,48.0,99,71,26,30.28,30.16,11,2,11,0.00
2013-8-25,90.3,74.7,60.1,70.1,60.5,50.9,99,69,27,30.35,30.24,11,2,11,0.00
2013-8-26,89.2,76.2,64.6,77.1,70.2,63.8,99,84,51,30.28,30.12,16,3,16,0.00
2013-8-27,90.5,80.1,72.3,78.3,74.5,70.9,99,85,56,30.14,30.02,14,4,14,0.00
2013-8-28,94.8,83.0,74.3,76.9,72.5,64.6,99,74,38,30.04,29.96,19,6,19,0.00
2013-8-29,91.2,79.8,72.0,79.4,73.1,65.0,99,82,43,30.08,30.00,11,2,11,0.00
2013-8-30,95.0,80.0,67.1,76.0,70.9,66.8,99,78,42,30.03,29.88,12,3,12,0.00
2013-8-31,96.3,82.9,69.4,77.9,73.8,67.6,99,77,43,29.95,29.77,23,6,23,0.51
2013-9-1,88.0,74.8,68.4,75.5,71.6,68.1,99,91,61,29.95,29.78,18,4,18,0.13
2013-9-2,87.3,75.8,68.5,75.7,68.7,61.6,99,81,45,29.94,29.85,11,3,14,0.00
2013-9-3,78.8,68.4,61.0,66.9,58.6,51.8,99,74,41,30.10,29.94,14,4,14,0.00
2013-9-4,83.3,67.1,55.6,65.0,59.1,54.4,99,80,38,30.19,30.09,9,1,9,0.00
2013-9-5,86.9,71.7,58.6,69.2,62.6,57.4,99,78,40,30.24,30.16,9,2,9,0.00
2013-9-6,86.4,72.1,62.1,69.5,63.8,57.2,99,78,47,30.25,30.11,9,2,9,0.00
2013-9-7,86.9,72.2,61.3,72.2,65.4,60.5,99,82,42,30.12,29.99,14,3,15,0.01
2013-9-8,86.4,75.4,67.5,78.1,70.5,64.1,99,87,48,30.03,29.97,8,2,8,0.07
2013-9-9,92.5,77.8,66.0,76.2,70.5,65.8,99,81,48,30.06,29.98,17,4,17,0.00
2013-9-10,95.0,79.7,70.5,79.0,74.7,67.7,99,86,46,30.17,30.04,18,4,18,0.13
2013-9-11,95.0,80.6,70.0,77.7,70.7,59.4,99,77,32,30.19,30.08,13,5,13,0.00
2013-9-12,81.7,75.8,68.4,76.6,69.9,52.7,99,83,53,30.09,29.95,13,4,13,0.08
2013-9-13,70.2,62.1,51.4,58.4,50.7,42.9,99,69,40,30.13,30.01,19,4,19,0.00
2013-9-14,72.3,57.5,44.1,51.7,47.7,42.8,99,74,38,30.22,30.11,10,2,10,0.00
2013-9-15,78.1,61.8,45.1,60.0,50.6,44.0,99,72,31,30.16,30.06,17,3,17,0.00
2013-9-16,71.1,64.9,57.4,61.4,59.1,55.5,94,82,69,30.29,30.09,14,5,14,0.00
2013-9-17,76.5,63.1,51.6,58.3,55.0,50.4,99,78,42,30.32,30.17,11,3,11,0.00
2013-9-18,79.2,66.6,57.0,71.1,64.1,56.8,99,92,69,30.18,30.08,10,2,11,0.02
2013-9-19,82.6,72.3,66.0,76.3,70.5,65.8,99,94,75,30.15,29.98,15,4,15,0.48
2013-9-20,80.1,72.0,68.2,73.4,70.7,67.7,99,96,74,30.01,29.86,18,5,18,0.26
2013-9-21,72.9,64.2,55.9,68.1,55.1,45.7,99,76,39,29.93,29.82,14,3,14,0.09
2013-9-22,71.1,58.8,48.0,55.3,51.3,47.8,99,79,48,30.05,29.93,12,2,12,0.00
2013-9-23,73.2,58.8,45.5,55.2,50.5,45.1,99,78,41,30.12,30.03,11,2,11,0.01
2013-9-24,78.8,62.6,49.6,66.3,57.0,49.4,99,84,56,30.08,29.91,11,2,11,0.00
2013-9-25,79.5,67.8,58.1,66.5,62.2,57.8,99,84,52,29.95,29.88,11,2,11,0.00
2013-9-26,78.4,64.7,52.3,61.4,55.2,42.0,99,77,34,30.09,29.95,10,2,10,0.01
2013-9-27,82.4,65.5,53.2,64.8,56.1,47.0,99,78,31,30.20,30.09,11,2,11,0.01
2013-9-28,83.3,65.5,52.9,64.7,57.2,49.9,99,80,32,30.18,30.06,17,3,17,0.15
2013-9-29,64.2,62.3,58.5,63.8,61.9,58.2,99,99,91,30.08,30.02,14,4,14,0.32
2013-9-30,71.1,64.3,61.3,70.3,63.9,61.1,99,99,93,30.05,29.98,12,4,12,0.01
2013-10-1,80.2,66.3,59.9,70.1,64.1,59.6,99,94,59,30.11,30.03,11,2,14,0.01
2013-10-2,76.6,69.3,63.5,76.2,69.0,63.2,99,99,96,30.14,30.06,8,2,9,0.00
2013-10-3,82.9,72.2,66.4,74.1,68.6,66.1,99,89,59,30.11,30.01,17,5,17,0.01
2013-10-4,84.2,71.8,63.5,76.9,69.4,63.1,99,93,66,30.11,30.03,14,2,14,0.02
2013-10-5,76.6,71.2,65.8,76.4,70.9,64.5,99,99,98,30.07,29.92,19,4,19,0.73
2013-10-6,68.2,60.8,48.7,67.9,59.7,44.1,99,96,67,29.93,29.80,19,4,19,2.35
2013-10-7,63.1,52.3,46.8,50.5,46.9,43.8,99,83,55,30.19,29.88,17,5,17,0.00
2013-10-8,71.6,54.8,42.8,59.7,47.7,42.5,99,81,37,30.28,30.19,11,2,11,0.00
2013-10-9,76.3,57.5,44.1,57.1,51.4,43.8,99,83,46,30.25,30.15,8,2,8,0.01
2013-10-10,77.2,59.3,49.3,64.5,54.6,49.0,99,87,46,30.22,30.10,8,1,8,0.01
2013-10-11,79.0,59.1,46.8,62.8,50.4,36.3,99,80,25,30.14,30.04,8,1,8,0.00
2013-10-12,79.3,62.1,49.5,65.3,56.9,49.2,99,86,45,30.15,30.06,11,2,11,0.00
2013-10-13,74.3,64.2,53.8,67.0,50.3,35.2,99,65,26,30.35,30.15,14,4,14,0.00
2013-10-14,72.5,56.9,45.5,53.7,46.2,40.4,99,71,32,30.36,30.18,9,4,9,0.00
2013-10-15,69.1,60.5,52.0,67.0,60.1,51.7,99,98,87,30.19,29.96,18,4,18,0.00
2013-10-16,64.8,57.9,45.7,64.5,52.4,44.6,99,83,54,30.02,29.91,16,4,16,0.00
2013-10-17,57.7,47.7,41.2,51.6,45.5,40.9,99,93,65,30.01,29.94,20,3,20,0.00
2013-10-18,68.2,51.8,41.9,56.2,44.3,40.1,99,80,39,30.06,29.96,17,4,17,0.00
2013-10-19,60.1,47.8,42.3,56.0,42.5,34.2,99,84,47,30.03,29.91,16,4,16,0.00
2013-10-20,64.0,50.6,39.6,43.5,40.4,36.2,99,72,39,30.03,29.96,24,8,24,0.00
2013-10-21,64.4,52.7,44.2,48.5,44.5,33.5,94,75,53,30.02,29.92,18,6,18,0.00
2013-10-22,52.9,42.3,30.9,42.1,32.1,23.9,99,71,33,30.06,29.80,9,2,10,0.00
2013-10-23,47.1,42.4,37.9,46.1,35.8,30.0,99,79,54,30.09,29.76,19,6,19,0.00
2013-10-24,40.1,37.6,34.2,38.7,32.2,25.7,98,81,61,30.32,30.07,18,4,18,0.00
2013-10-25,50.7,37.8,28.8,30.4,25.8,17.5,89,66,27,30.46,30.27,13,3,13,0.00
2013-10-26,59.9,44.8,31.3,39.9,31.5,25.7,82,61,41,30.28,29.95,24,7,24,0.00
2013-10-27,61.0,44.0,30.6,42.8,31.8,25.5,99,68,27,30.12,30.04,11,2,11,0.00
2013-10-28,65.3,46.4,30.7,47.0,33.4,21.1,99,68,20,30.29,30.08,8,2,8,0.00
2013-10-29,55.6,47.5,37.4,52.4,43.1,34.6,99,85,70,30.33,30.16,4,1,4,0.00
2013-10-30,68.4,58.2,52.5,67.9,57.9,52.3,99,99,86,30.16,29.98,14,2,18,0.00
2013-10-31,68.5,63.9,58.3,67.7,62.2,55.0,99,95,77,29.99,29.38,35,14,35,0.01
2013-11-1,64.6,54.9,47.7,58.4,47.8,41.9,99,79,46,29.81,29.48,25,8,25,0.00
2013-11-2,57.2,47.6,39.0,46.5,39.4,32.7,99,75,44,30.15,29.80,17,4,17,0.00
2013-11-3,57.4,43.2,31.6,43.5,33.2,26.8,99,73,33,30.33,30.14,10,2,10,0.00
2013-11-4,57.7,49.3,37.9,43.5,39.0,34.3,91,69,50,30.33,30.25,14,3,14,0.00
2013-11-5,65.3,53.9,46.8,50.3,45.4,41.7,99,75,46,30.37,30.17,11,2,11,0.00
2013-11-6,61.3,55.4,42.1,58.0,49.4,41.4,99,83,50,30.16,29.97,24,9,24,0.01
2013-11-7,50.9,41.4,33.6,41.6,32.0,17.4,99,74,27,30.32,30.13,17,5,17,0.00
2013-11-8,55.4,38.9,28.8,35.9,28.3,16.3,99,71,22,30.39,30.20,11,2,11,0.00
2013-11-9,63.1,50.5,34.5,42.2,34.0,26.2,75,54,36,30.21,30.04,29,9,29,0.00
2013-11-10,55.6,46.7,33.1,42.2,29.3,18.8,80,53,24,30.35,30.16,15,4,15,0.00
2013-11-11,61.0,41.6,29.3,45.6,31.7,21.6,99,74,23,30.31,30.10,21,5,21,0.00
2013-11-12,38.7,31.3,25.7,34.6,24.3,18.0,99,76,44,30.64,30.31,24,6,24,0.00
2013-11-13,41.2,30.0,18.5,23.8,17.0,6.5,96,63,25,30.64,30.38,16,4,16,0.00
2013-11-14,54.7,41.3,29.1,19.7,14.0,2.5,66,38,12,30.37,30.13,21,9,21,0.00
2013-11-15,54.1,46.5,38.3,45.0,24.9,10.0,91,45,23,30.14,30.06,17,5,17,0.00
2013-11-16,63.1,55.4,47.3,61.6,53.7,45.0,99,94,76,30.06,29.81,21,6,21,0.00
2013-11-17,81.1,62.3,52.9,67.4,57.5,39.8,99,86,48,29.86,29.47,52,13,52,0.04
2013-11-18,53.6,47.3,37.8,40.9,33.0,24.0,86,59,33,30.23,29.86,26,9,26,0.00
2013-11-19,45.3,36.5,29.5,29.2,26.8,23.4,88,69,44,30.34,30.23,17,4,17,0.00
2013-11-20,54.0,40.7,30.4,32.3,28.4,25.4,84,63,36,30.29,30.15,11,3,11,0.00
2013-11-21,58.6,50.7,44.8,52.3,41.9,32.0,99,73,54,30.26,30.16,10,2,10,0.00
2013-11-22,57.0,47.1,36.3,53.3,45.3,32.1,99,93,80,30.42,30.16,18,6,18,0.00
2013-11-23,36.3,29.8,20.7,32.3,20.1,6.5,94,68,46,30.61,30.40,21,7,21,0.00
2013-11-24,30.2,20.8,13.8,12.3,8.5,1.8,79,60,31,30.70,30.49,11,3,11,0.00
2013-11-25,36.1,28.3,18.7,29.2,15.6,7.6,88,61,30,30.50,30.17,19,5,19,0.00
2013-11-26,36.9,33.8,32.2,31.8,27.8,23.4,97,80,59,30.21,29.96,15,4,19,0.00
2013-11-27,32.0,24.1,17.8,23.4,12.5,3.2,78,62,36,30.31,30.01,20,7,20,0.00
2013-11-28,39.0,27.7,15.4,17.8,12.3,8.1,81,55,30,30.43,30.25,21,6,21,0.00
2013-11-29,43.7,31.3,21.2,23.7,18.4,15.6,85,61,34,30.60,30.45,11,2,11,0.00
2013-11-30,54.1,39.5,24.3,27.6,21.7,7.4,92,54,15,30.46,30.15,20,5,21,0.00
2013-12-1,57.2,45.9,36.7,37.4,30.8,19.4,97,58,32,30.15,29.95,12,5,13,0.00
2013-12-2,55.0,43.3,34.2,41.9,37.9,33.9,99,83,55,29.96,29.75,8,2,8,0.00
2013-12-3,53.1,45.1,33.8,52.8,44.5,33.6,99,98,85,29.84,29.75,8,2,8,0.00
2013-12-4,66.4,55.6,45.0,64.6,54.4,44.7,99,96,80,29.80,29.64,18,4,18,0.00
2013-12-5,65.7,41.3,26.6,60.7,38.4,26.4,99,90,77,30.22,29.75,21,5,21,0.00
2013-12-6,26.8,23.9,22.6,26.6,23.7,22.2,99,99,99,30.42,30.15,0,0,0,0.00
2013-12-7,25.9,18.3,9.5,22.2,15.4,8.2,99,89,76,30.61,30.42,0,0,0,0.00
2013-12-8,30.7,25.0,20.1,30.5,21.6,14.7,99,87,78,30.48,30.01,0,0,0,0.00
2013-12-9,31.6,26.8,21.0,30.9,22.3,15.7,99,84,58,30.25,30.01,14,0,14,0.00
2013-12-10,29.3,21.6,15.1,18.7,14.2,7.0,94,75,39,30.34,30.19,24,3,24,0.00
2013-12-11,34.5,19.0,6.1,25.3,13.5,3.7,94,80,64,30.54,30.30,20,5,20,0.00
2013-12-12,25.7,13.8,-1.5,8.2,-0.8,-17.1,88,58,14,30.56,30.32,15,5,15,0.00
2013-12-13,40.6,29.1,17.2,33.0,16.7,5.5,99,62,34,30.33,30.08,26,5,26,0.00
2013-12-14,40.8,34.1,30.0,37.3,33.9,29.8,99,99,98,30.09,29.73,17,4,17,0.00
2013-12-15,30.2,26.6,24.4,30.0,23.5,19.7,99,88,74,30.13,29.97,20,5,21,0.00
2013-12-16,41.4,33.7,27.7,34.7,31.6,26.2,99,92,76,30.11,29.99,12,3,12,0.00
2013-12-17,36.1,28.0,24.4,32.9,26.9,24.2,99,96,87,30.19,30.00,18,6,18,0.00
2013-12-18,43.2,32.4,20.7,27.1,16.6,5.4,97,56,22,30.27,30.03,14,6,14,0.01
2013-12-19,57.4,49.9,43.0,48.1,36.5,18.7,73,60,37,30.05,29.90,27,12,27,0.00
2013-12-20,63.1,59.1,55.6,62.9,54.4,45.4,99,85,65,29.91,29.79,34,16,34,0.11
2013-12-21,64.8,51.0,44.8,60.7,50.8,41.6,99,99,99,29.82,29.46,19,4,19,0.05
2013-12-22,62.6,41.3,33.1,61.6,41.1,32.3,99,99,97,30.11,29.38,27,10,27,4.46
2013-12-23,33.1,27.3,21.2,32.8,23.2,17.2,99,84,77,30.42,30.11,17,7,17,0.00
2013-12-24,23.5,15.6,7.3,17.2,6.8,0.0,84,68,49,30.57,30.41,17,4,17,0.00
2013-12-25,32.4,26.2,18.7,26.0,17.1,11.4,79,68,55,30.43,30.20,14,6,14,0.00
2013-12-26,41.2,34.0,28.9,28.8,24.8,20.5,87,70,44,30.36,30.20,22,6,22,0.00
2013-12-27,50.0,38.3,30.0,32.3,27.8,23.7,80,67,45,30.39,30.27,14,6,14,0.00
2013-12-28,52.0,42.3,35.2,33.1,29.3,23.5,82,62,34,30.28,29.98,15,6,15,0.00
2013-12-29,46.4,36.8,27.5,42.4,33.8,26.9,99,90,56,30.11,29.84,21,7,21,0.07
2013-12-30,27.3,22.6,18.7,27.1,15.7,8.5,99,76,46,30.28,30.11,16,6,16,0.17
2013-12-31,37.9,28.4,20.7,21.1,16.4,12.9,77,61,38,30.37,30.18,16,6,16,0.12
2014-1-1,45.3,36.3,27.9,30.9,25.9,20.8,88,67,44,30.24,29.99,18,5,18,0.00
2014-1-2,37.6,22.7,11.3,34.1,20.4,6.1,99,91,77,30.34,29.86,9,0,11,0.01